createdAt,value
2023-02-21T00:01:30.267Z,8.77
2023-02-21T00:04:01.821Z,8.92
2023-02-21T00:06:33.485Z,8.93
2023-02-21T00:09:05.139Z,8.75
2023-02-21T00:11:41.667Z,8.21
2023-02-21T00:14:13.266Z,8.47
2023-02-21T00:16:44.860Z,8.07
2023-02-21T00:19:16.510Z,8.48
2023-02-21T00:21:48.200Z,8.73
2023-02-21T00:24:19.896Z,8.70
2023-02-21T00:26:51.540Z,8.70
2023-02-21T00:29:23.145Z,8.64
2023-02-21T00:31:54.780Z,8.45
2023-02-21T00:34:26.773Z,8.58
2023-02-21T00:36:58.345Z,8.05
2023-02-21T00:39:29.904Z,8.16
2023-02-21T00:42:01.559Z,8.45
2023-02-21T00:44:33.132Z,8.15
2023-02-21T00:47:04.722Z,8.26
2023-02-21T00:49:36.353Z,8.32
2023-02-21T00:52:08.066Z,8.34
2023-02-21T00:54:39.685Z,8.20
2023-02-21T00:57:11.298Z,8.30
2023-02-21T00:59:42.892Z,8.27
2023-02-21T01:02:14.713Z,8.11
2023-02-21T01:04:46.302Z,8.34
2023-02-21T01:07:19.773Z,8.28
2023-02-21T01:09:51.476Z,8.20
2023-02-21T01:12:23.069Z,8.44
2023-02-21T01:14:54.709Z,8.44
2023-02-21T01:17:26.448Z,8.45
2023-02-21T01:20:00.661Z,8.38
2023-02-21T01:22:32.288Z,7.75
2023-02-21T01:25:05.021Z,7.95
2023-02-21T01:27:37.008Z,8.11
2023-02-21T01:30:08.962Z,8.11
2023-02-21T01:32:42.006Z,8.28
2023-02-21T01:35:13.740Z,8.37
2023-02-21T01:37:45.950Z,8.12
2023-02-21T01:40:17.880Z,8.42
2023-02-21T01:42:49.640Z,8.42
2023-02-21T01:45:21.138Z,8.20
2023-02-21T01:47:53.592Z,8.59
2023-02-21T01:50:30.116Z,8.33
2023-02-21T01:53:07.357Z,8.47
2023-02-21T01:55:42.459Z,8.52
2023-02-21T01:58:14.419Z,8.37
2023-02-21T02:00:47.413Z,8.37
2023-02-21T02:03:20.854Z,8.04
2023-02-21T02:06:17.689Z,7.89
2023-02-21T02:08:49.433Z,8.32
2023-02-21T02:11:21.342Z,8.15
2023-02-21T02:14:27.062Z,8.35
2023-02-21T02:17:06.901Z,8.31
2023-02-21T02:20:14.765Z,8.22
2023-02-21T02:22:52.514Z,8.23
2023-02-21T02:25:54.987Z,8.13
2023-02-21T02:28:54.676Z,8.17
2023-02-21T02:31:41.729Z,8.23
2023-02-21T02:34:19.588Z,8.11
2023-02-21T02:36:59.710Z,7.93
2023-02-21T02:39:39.684Z,7.97
2023-02-21T02:42:16.893Z,8.03
2023-02-21T02:44:57.596Z,8.00
2023-02-21T02:47:36.703Z,7.98
2023-02-21T02:50:11.385Z,7.86
2023-02-21T02:52:51.659Z,7.63
2023-02-21T02:55:43.164Z,7.77
2023-02-21T02:58:17.494Z,7.95
2023-02-21T03:01:17.643Z,8.02
2023-02-21T03:03:53.040Z,7.86
2023-02-21T03:06:44.941Z,7.95
2023-02-21T03:09:29.346Z,7.84
2023-02-21T03:12:17.579Z,7.76
2023-02-21T03:15:01.304Z,7.90
2023-02-21T03:17:43.300Z,7.85
2023-02-21T03:20:19.174Z,7.80
2023-02-21T03:22:54.457Z,7.62
2023-02-21T03:25:30.599Z,7.30
2023-02-21T03:28:06.767Z,7.66
2023-02-21T03:30:50.371Z,7.26
2023-02-21T03:33:23.679Z,7.66
2023-02-21T03:35:58.546Z,7.80
2023-02-21T03:38:31.271Z,7.91
2023-02-21T03:41:03.145Z,7.87
2023-02-21T03:43:35.695Z,7.76
2023-02-21T03:46:09.043Z,7.39
2023-02-21T03:48:41.073Z,7.53
2023-02-21T03:51:20.985Z,7.67
2023-02-21T03:53:52.647Z,7.65
2023-02-21T03:56:33.372Z,7.77
2023-02-21T03:59:25.097Z,7.66
2023-02-21T04:01:57.936Z,7.75
2023-02-21T04:04:31.519Z,7.61
2023-02-21T04:07:11.983Z,7.66
2023-02-21T04:09:44.834Z,7.41
2023-02-21T04:12:21.602Z,7.27
2023-02-21T04:14:54.023Z,7.47
2023-02-21T04:17:26.177Z,7.43
2023-02-21T04:19:59.612Z,7.54
2023-02-21T04:22:31.329Z,7.55
2023-02-21T04:25:03.062Z,7.36
2023-02-21T04:27:41.119Z,7.60
2023-02-21T04:30:12.857Z,7.66
2023-02-21T04:32:47.702Z,7.56
2023-02-21T04:35:20.853Z,7.67
2023-02-21T04:37:52.940Z,7.48
2023-02-21T04:40:24.615Z,7.29
2023-02-21T04:42:56.239Z,7.22
2023-02-21T04:45:27.918Z,7.23
2023-02-21T04:47:59.735Z,7.41
2023-02-21T04:50:31.410Z,7.05
2023-02-21T04:53:04.686Z,6.90
2023-02-21T04:55:36.293Z,6.60
2023-02-21T04:58:08.142Z,6.44
2023-02-21T05:00:39.784Z,6.47
2023-02-21T05:03:11.413Z,6.37
2023-02-21T05:05:43.116Z,6.97
2023-02-21T05:08:14.817Z,7.10
2023-02-21T05:10:46.834Z,6.89
2023-02-21T05:13:18.427Z,7.06
2023-02-21T05:15:50.003Z,7.03
2023-02-21T05:18:21.660Z,7.11
2023-02-21T05:20:53.261Z,7.15
2023-02-21T05:23:24.941Z,6.94
2023-02-21T05:25:56.541Z,6.73
2023-02-21T05:28:28.140Z,6.88
2023-02-21T05:31:01.184Z,6.93
2023-02-21T05:33:33.149Z,7.14
2023-02-21T05:36:05.217Z,7.05
2023-02-21T05:38:49.358Z,6.82
2023-02-21T05:41:22.622Z,7.11
2023-02-21T05:43:54.429Z,6.91
2023-02-21T05:46:29.019Z,7.23
2023-02-21T05:49:03.703Z,6.80
2023-02-21T05:51:41.905Z,6.43
2023-02-21T05:54:16.841Z,6.94
2023-02-21T05:56:51.198Z,7.06
2023-02-21T05:59:23.501Z,7.26
2023-02-21T06:01:55.336Z,7.24
2023-02-21T06:04:26.932Z,7.14
2023-02-21T06:06:58.557Z,7.17
2023-02-21T06:09:30.141Z,7.08
2023-02-21T06:12:01.792Z,7.12
2023-02-21T06:14:33.446Z,7.27
2023-02-21T06:17:05.181Z,7.22
2023-02-21T06:19:36.725Z,7.27
2023-02-21T06:22:08.288Z,7.10
2023-02-21T06:24:39.922Z,7.12
2023-02-21T06:27:11.549Z,7.09
2023-02-21T06:29:43.085Z,7.00
2023-02-21T06:32:14.817Z,6.67
2023-02-21T06:34:46.487Z,6.85
2023-02-21T06:37:19.219Z,6.96
2023-02-21T06:39:50.750Z,6.97
2023-02-21T06:42:22.404Z,6.96
2023-02-21T06:44:54.062Z,6.93
2023-02-21T06:47:25.697Z,7.05
2023-02-21T06:49:57.262Z,7.12
2023-02-21T06:52:30.691Z,6.87
2023-02-21T06:55:02.327Z,7.26
2023-02-21T06:57:33.899Z,7.37
2023-02-21T07:00:06.231Z,7.45
2023-02-21T07:02:37.863Z,7.65
2023-02-21T07:05:10.459Z,7.68
2023-02-21T07:07:42.054Z,7.99
2023-02-21T07:10:13.672Z,8.30
2023-02-21T07:12:45.348Z,9.65
2023-02-21T07:15:16.921Z,11.56
2023-02-21T07:17:48.696Z,12.70
2023-02-21T07:20:20.242Z,13.76
2023-02-21T07:22:51.839Z,14.41
2023-02-21T07:25:23.594Z,15.64
2023-02-21T07:27:55.375Z,16.83
2023-02-21T07:30:26.961Z,18.16
2023-02-21T07:32:59.107Z,18.89
2023-02-21T07:35:30.700Z,19.83
2023-02-21T07:38:02.343Z,19.82
2023-02-21T07:40:34.118Z,20.19
2023-02-21T07:43:06.081Z,20.85
2023-02-21T07:45:37.890Z,20.68
2023-02-21T07:48:09.490Z,21.59
2023-02-21T07:50:42.211Z,22.65
2023-02-21T07:53:16.165Z,22.47
2023-02-21T07:55:47.775Z,23.55
2023-02-21T07:58:21.369Z,22.94
2023-02-21T08:00:53.308Z,22.22
2023-02-21T08:03:25.406Z,22.76
2023-02-21T08:06:00.818Z,23.53
2023-02-21T08:08:32.438Z,23.73
2023-02-21T08:11:04.388Z,24.40
2023-02-21T08:13:36.004Z,25.38
2023-02-21T08:16:07.728Z,24.65
2023-02-21T08:18:39.732Z,23.76
2023-02-21T08:21:11.400Z,23.50
2023-02-21T08:23:43.020Z,25.48
2023-02-21T08:26:14.701Z,25.01
2023-02-21T08:28:46.368Z,26.00
2023-02-21T08:31:18.076Z,26.34
2023-02-21T08:33:49.734Z,26.55
2023-02-21T08:36:21.388Z,27.25
2023-02-21T08:38:53.021Z,23.43
2023-02-21T08:41:24.627Z,25.85
2023-02-21T08:43:56.156Z,27.43
2023-02-21T08:46:27.742Z,28.00
2023-02-21T08:48:59.488Z,28.24
2023-02-21T08:51:33.331Z,28.13
2023-02-21T08:54:04.935Z,27.11
2023-02-21T08:56:36.686Z,26.59
2023-02-21T08:59:08.379Z,27.82
2023-02-21T09:01:40.045Z,27.83
2023-02-21T09:04:11.618Z,27.20
2023-02-21T09:06:43.192Z,28.12
2023-02-21T09:09:14.795Z,27.68
2023-02-21T09:11:46.828Z,26.71
2023-02-21T09:14:18.383Z,25.91
2023-02-21T09:16:50.002Z,27.83
2023-02-21T09:19:21.615Z,26.92
2023-02-21T09:21:53.197Z,27.48
2023-02-21T09:24:27.259Z,28.06
2023-02-21T09:26:59.646Z,24.64
2023-02-21T09:29:44.998Z,25.54
2023-02-21T09:32:17.387Z,26.00
2023-02-21T09:34:48.954Z,26.48
2023-02-21T09:37:20.583Z,27.87
2023-02-21T09:39:52.470Z,27.21
2023-02-21T09:42:29.940Z,27.39
2023-02-21T09:45:04.411Z,27.26
2023-02-21T09:47:39.046Z,28.37
2023-02-21T09:50:16.484Z,27.99
2023-02-21T09:52:48.159Z,27.90
2023-02-21T09:55:39.787Z,26.68
2023-02-21T09:58:14.427Z,27.14
2023-02-21T10:00:47.056Z,28.82
2023-02-21T10:03:37.377Z,28.27
2023-02-21T10:06:27.380Z,25.79
2023-02-21T10:09:22.759Z,26.95
2023-02-21T10:12:17.065Z,26.10
2023-02-21T10:14:57.406Z,24.55
2023-02-21T10:17:37.246Z,24.62
2023-02-21T10:20:29.005Z,25.97
2023-02-21T10:23:05.858Z,25.29
2023-02-21T10:25:44.777Z,26.72
2023-02-21T10:28:22.811Z,26.45
2023-02-21T10:31:11.416Z,25.06
2023-02-21T10:33:43.627Z,22.59
2023-02-21T10:36:21.115Z,23.10
2023-02-21T10:39:13.359Z,21.71
2023-02-21T10:41:45.028Z,23.08
2023-02-21T10:44:28.793Z,21.49
2023-02-21T10:47:23.097Z,24.30
2023-02-21T10:50:05.701Z,22.97
2023-02-21T10:52:48.130Z,22.33
2023-02-21T10:55:32.710Z,21.31
2023-02-21T10:58:18.319Z,22.60
2023-02-21T11:00:50.235Z,22.92
2023-02-21T11:03:24.804Z,22.63
2023-02-21T11:05:58.220Z,21.84
2023-02-21T11:08:40.325Z,21.83
2023-02-21T11:11:12.181Z,23.19
2023-02-21T11:13:43.909Z,22.08
2023-02-21T11:16:20.622Z,21.45
2023-02-21T11:19:05.808Z,22.40
2023-02-21T11:21:38.044Z,23.19
2023-02-21T11:24:12.316Z,23.26
2023-02-21T11:26:53.128Z,21.47
2023-02-21T11:29:26.513Z,21.58
2023-02-21T11:31:58.230Z,22.22
2023-02-21T11:34:30.364Z,21.80
2023-02-21T11:37:04.583Z,23.48
2023-02-21T11:39:36.202Z,23.55
2023-02-21T11:42:29.328Z,21.55
2023-02-21T11:45:19.605Z,20.97
2023-02-21T11:48:01.456Z,20.14
2023-02-21T11:50:43.213Z,22.22
2023-02-21T11:53:24.219Z,22.47
2023-02-21T11:56:34.132Z,23.54
2023-02-21T11:59:05.658Z,23.01
2023-02-21T12:02:14.956Z,21.89
2023-02-21T12:05:14.009Z,22.91
2023-02-21T12:08:14.429Z,22.65
2023-02-21T12:11:00.329Z,21.32
2023-02-21T12:13:57.295Z,21.41
2023-02-21T12:16:47.559Z,21.44
2023-02-21T12:19:43.874Z,20.65
2023-02-21T12:22:53.967Z,20.64
2023-02-21T12:25:58.456Z,20.07
2023-02-21T12:28:56.161Z,21.95
2023-02-21T12:31:56.828Z,20.84
2023-02-21T12:34:37.791Z,22.13
2023-02-21T12:37:12.184Z,21.60
2023-02-21T12:40:08.470Z,21.81
2023-02-21T12:42:50.134Z,22.91
2023-02-21T12:45:37.039Z,22.56
2023-02-21T12:48:27.463Z,20.71
2023-02-21T12:51:07.674Z,21.40
2023-02-21T12:53:55.267Z,20.45
2023-02-21T12:56:54.084Z,20.20
2023-02-21T12:59:50.630Z,20.07
2023-02-21T13:02:36.745Z,19.94
2023-02-21T13:05:21.105Z,19.47
2023-02-21T13:08:05.293Z,20.48
2023-02-21T13:10:56.069Z,20.88
2023-02-21T13:13:30.836Z,20.11
2023-02-21T13:16:07.536Z,18.95
2023-02-21T13:18:42.053Z,19.53
2023-02-21T13:21:43.304Z,18.94
2023-02-21T13:25:00.235Z,18.70
2023-02-21T13:27:56.346Z,18.42
2023-02-21T13:30:31.029Z,18.72
2023-02-21T13:33:02.899Z,17.66
2023-02-21T13:35:38.432Z,17.51
2023-02-21T13:38:12.132Z,17.84
2023-02-21T13:41:02.151Z,17.29
2023-02-21T13:43:37.767Z,17.49
2023-02-21T13:46:31.327Z,18.08
2023-02-21T13:49:41.850Z,18.25
2023-02-21T13:52:19.374Z,18.94
2023-02-21T13:55:09.448Z,17.91
2023-02-21T13:58:02.952Z,18.03
2023-02-21T14:00:34.592Z,17.87
2023-02-21T14:03:09.292Z,17.54
2023-02-21T14:05:46.792Z,17.90
2023-02-21T14:08:42.383Z,18.99
2023-02-21T14:11:21.455Z,18.68
2023-02-21T14:14:02.106Z,18.63
2023-02-21T14:16:46.345Z,18.74
2023-02-21T14:19:25.097Z,18.93
2023-02-21T14:22:09.415Z,18.70
2023-02-21T14:24:48.814Z,18.72
2023-02-21T14:27:20.309Z,19.03
2023-02-21T14:30:01.077Z,17.88
2023-02-21T14:32:36.917Z,17.58
2023-02-21T14:35:14.510Z,17.63
2023-02-21T14:38:15.559Z,18.28
2023-02-21T14:41:09.349Z,18.42
2023-02-21T14:43:50.969Z,18.08
2023-02-21T14:46:34.476Z,18.11
2023-02-21T14:49:18.227Z,17.74
2023-02-21T14:52:03.490Z,18.76
2023-02-21T14:55:08.742Z,19.17
2023-02-21T14:58:12.963Z,18.45
2023-02-21T15:00:50.459Z,20.01
2023-02-21T15:03:27.530Z,20.52
2023-02-21T15:06:10.621Z,19.46
2023-02-21T15:08:52.609Z,20.44
2023-02-21T15:11:26.018Z,19.56
2023-02-21T15:14:24.602Z,19.92
2023-02-21T15:16:59.394Z,19.50
2023-02-21T15:19:34.600Z,20.61
2023-02-21T15:22:17.558Z,18.99
2023-02-21T15:25:07.429Z,20.01
2023-02-21T15:27:56.300Z,18.99
2023-02-21T15:30:36.345Z,17.67
2023-02-21T15:33:19.130Z,16.66
2023-02-21T15:35:56.313Z,16.14
2023-02-21T15:38:43.559Z,16.53
2023-02-21T15:41:40.054Z,15.60
2023-02-21T15:44:16.226Z,14.73
2023-02-21T15:46:59.741Z,15.17
2023-02-21T15:49:44.150Z,14.73
2023-02-21T15:52:38.929Z,14.32
2023-02-21T15:55:29.912Z,14.14
2023-02-21T15:58:07.507Z,13.87
2023-02-21T16:00:41.720Z,13.60
2023-02-21T16:03:31.801Z,13.49
2023-02-21T16:06:26.836Z,13.33
2023-02-21T16:09:02.357Z,13.68
2023-02-21T16:11:45.007Z,13.33
2023-02-21T16:14:21.855Z,13.30
2023-02-21T16:17:06.823Z,13.46
2023-02-21T16:19:41.300Z,13.07
2023-02-21T16:22:43.178Z,13.68
2023-02-21T16:25:24.599Z,13.79
2023-02-21T16:27:58.366Z,14.17
2023-02-21T16:30:31.595Z,14.31
2023-02-21T16:33:05.708Z,14.50
2023-02-21T16:35:37.304Z,14.38
2023-02-21T16:38:24.359Z,14.33
2023-02-21T16:40:56.031Z,14.14
2023-02-21T16:43:29.134Z,13.44
2023-02-21T16:46:00.907Z,13.01
2023-02-21T16:48:33.489Z,13.37
2023-02-21T16:51:11.479Z,13.46
2023-02-21T16:53:43.048Z,13.35
2023-02-21T16:56:15.767Z,13.04
2023-02-21T16:58:53.819Z,12.66
2023-02-21T17:01:29.177Z,12.92
2023-02-21T17:04:00.782Z,12.83
2023-02-21T17:06:34.564Z,13.14
2023-02-21T17:09:06.175Z,13.06
2023-02-21T17:11:37.785Z,13.02
2023-02-21T17:14:09.359Z,12.89
2023-02-21T17:16:42.057Z,12.35
2023-02-21T17:19:16.453Z,12.65
2023-02-21T17:21:48.228Z,12.46
2023-02-21T17:24:19.833Z,12.01
2023-02-21T17:26:54.936Z,11.59
2023-02-21T17:29:26.695Z,11.95
2023-02-21T17:31:58.341Z,11.58
2023-02-21T17:34:29.895Z,11.66
2023-02-21T17:37:01.618Z,11.43
2023-02-21T17:39:33.271Z,11.36
2023-02-21T17:42:05.061Z,11.25
2023-02-21T17:44:36.704Z,11.15
2023-02-21T17:47:08.295Z,11.41
2023-02-21T17:49:39.899Z,11.70
2023-02-21T17:52:11.435Z,11.82
2023-02-21T17:54:43.318Z,11.95
2023-02-21T17:57:14.974Z,11.73
2023-02-21T17:59:46.715Z,11.98
2023-02-21T18:02:18.347Z,11.68
2023-02-21T18:04:50.030Z,11.32
2023-02-21T18:07:21.695Z,11.36
2023-02-21T18:09:53.343Z,11.74
2023-02-21T18:12:24.967Z,11.32
2023-02-21T18:14:56.592Z,11.19
2023-02-21T18:17:28.256Z,11.57
2023-02-21T18:19:59.909Z,11.63
2023-02-21T18:22:31.541Z,11.05
2023-02-21T18:25:04.330Z,11.41
2023-02-21T18:27:36.842Z,11.31
2023-02-21T18:30:09.350Z,10.93
2023-02-21T18:32:40.926Z,11.45
2023-02-21T18:35:12.622Z,10.68
2023-02-21T18:37:45.302Z,11.12
2023-02-21T18:40:18.367Z,11.35
2023-02-21T18:42:49.991Z,11.43
2023-02-21T18:45:21.583Z,11.15
2023-02-21T18:47:53.204Z,10.70
2023-02-21T18:50:24.821Z,11.09
2023-02-21T18:52:56.421Z,11.05
2023-02-21T18:55:28.121Z,11.12
2023-02-21T18:58:00.226Z,11.41
2023-02-21T19:00:32.410Z,11.26
2023-02-21T19:03:06.588Z,10.68
2023-02-21T19:05:38.448Z,10.96
2023-02-21T19:08:10.097Z,11.15
2023-02-21T19:10:41.679Z,11.27
2023-02-21T19:13:13.347Z,11.35
2023-02-21T19:15:45.570Z,11.41
2023-02-21T19:18:17.233Z,10.96
2023-02-21T19:20:48.781Z,11.10
2023-02-21T19:23:20.411Z,10.83
2023-02-21T19:25:52.086Z,11.08
2023-02-21T19:28:24.127Z,11.16
2023-02-21T19:30:55.975Z,11.28
2023-02-21T19:33:27.780Z,11.09
2023-02-21T19:36:04.752Z,11.21
2023-02-21T19:38:36.511Z,11.21
2023-02-21T19:41:08.784Z,11.16
2023-02-21T19:43:41.617Z,11.17
2023-02-21T19:46:25.417Z,10.82
2023-02-21T19:48:57.136Z,11.04
2023-02-21T19:51:31.790Z,11.16
2023-02-21T19:54:03.699Z,11.20
2023-02-21T19:56:35.234Z,11.21
2023-02-21T19:59:07.694Z,11.19
2023-02-21T20:01:39.887Z,11.28
2023-02-21T20:04:18.800Z,11.30
2023-02-21T20:06:50.495Z,11.25
2023-02-21T20:09:22.115Z,11.11
2023-02-21T20:11:53.808Z,11.15
2023-02-21T20:14:25.418Z,11.25
2023-02-21T20:16:57.006Z,11.19
2023-02-21T20:19:28.770Z,11.20
2023-02-21T20:22:00.479Z,10.87
2023-02-21T20:24:32.119Z,10.92
2023-02-21T20:27:03.877Z,10.97
2023-02-21T20:29:35.515Z,10.88
2023-02-21T20:32:07.241Z,10.68
2023-02-21T20:34:39.450Z,10.59
2023-02-21T20:37:11.100Z,10.91
2023-02-21T20:39:42.938Z,10.83
2023-02-21T20:42:15.159Z,10.81
2023-02-21T20:44:46.931Z,10.98
2023-02-21T20:47:18.666Z,11.08
2023-02-21T20:49:50.498Z,11.00
2023-02-21T20:52:22.373Z,10.95
2023-02-21T20:54:54.369Z,10.90
2023-02-21T20:57:26.022Z,10.89
2023-02-21T20:59:57.654Z,10.83
2023-02-21T21:02:29.333Z,10.77
2023-02-21T21:05:00.969Z,10.83
2023-02-21T21:07:32.524Z,10.89
2023-02-21T21:10:04.406Z,10.82
2023-02-21T21:12:36.200Z,10.49
2023-02-21T21:15:08.657Z,10.21
2023-02-21T21:17:40.227Z,10.48
2023-02-21T21:20:17.779Z,10.47
2023-02-21T21:22:50.455Z,10.58
2023-02-21T21:25:22.166Z,10.33
2023-02-21T21:27:53.864Z,10.47
2023-02-21T21:30:25.668Z,10.31
2023-02-21T21:32:57.887Z,10.26
2023-02-21T21:35:29.518Z,10.19
2023-02-21T21:38:02.257Z,10.21
2023-02-21T21:40:33.917Z,10.25
2023-02-21T21:43:05.503Z,10.12
2023-02-21T21:45:37.128Z,10.32
2023-02-21T21:48:08.725Z,10.40
2023-02-21T21:50:40.574Z,10.12
2023-02-21T21:53:12.361Z,10.09
2023-02-21T21:55:43.961Z,10.07
2023-02-21T21:58:15.575Z,9.99
2023-02-21T22:00:47.138Z,9.83
2023-02-21T22:03:19.057Z,9.85
2023-02-21T22:05:50.910Z,9.83
2023-02-21T22:08:23.235Z,10.01
2023-02-21T22:10:54.939Z,10.05
2023-02-21T22:13:26.570Z,9.92
2023-02-21T22:15:58.246Z,9.99
2023-02-21T22:18:29.888Z,9.96
2023-02-21T22:21:01.565Z,9.90
2023-02-21T22:23:33.233Z,9.78
2023-02-21T22:26:05.006Z,9.99
2023-02-21T22:28:36.612Z,10.04
2023-02-21T22:31:09.039Z,9.81
2023-02-21T22:33:40.815Z,9.86
2023-02-21T22:36:13.795Z,9.94
2023-02-21T22:38:48.103Z,9.86
2023-02-21T22:41:25.044Z,9.73
2023-02-21T22:43:56.621Z,9.74
2023-02-21T22:46:39.010Z,9.43
2023-02-21T22:49:11.114Z,9.82
2023-02-21T22:51:42.893Z,9.81
2023-02-21T22:54:14.785Z,9.89
2023-02-21T22:56:46.459Z,9.82
2023-02-21T22:59:20.245Z,9.86
2023-02-21T23:01:52.119Z,9.68
2023-02-21T23:04:25.326Z,9.54
2023-02-21T23:06:59.074Z,9.69
2023-02-21T23:09:31.311Z,9.72
2023-02-21T23:12:04.686Z,9.57
2023-02-21T23:14:36.411Z,9.35
2023-02-21T23:17:08.177Z,9.29
2023-02-21T23:19:39.837Z,9.33
2023-02-21T23:22:11.445Z,9.35
2023-02-21T23:24:43.916Z,9.39
2023-02-21T23:27:15.552Z,9.43
2023-02-21T23:29:47.086Z,9.41
2023-02-21T23:32:18.691Z,8.70
2023-02-21T23:34:50.844Z,8.83
2023-02-21T23:37:22.463Z,8.83
2023-02-21T23:39:54.021Z,9.08
2023-02-21T23:42:27.223Z,9.37
2023-02-21T23:44:58.913Z,8.41
2023-02-21T23:47:30.483Z,8.82
2023-02-21T23:50:02.364Z,9.20
2023-02-21T23:52:34.001Z,9.25
2023-02-21T23:55:06.053Z,9.37
2023-02-21T23:57:37.675Z,9.49
